sensor_id;sensor_type;location;lat;lon;timestamp;pressure;altitude;pressure_sealevel;temperature;humidity
71485;BME280;59300;52.074;4.758;2022-08-21T00:01:46;101743.22;;;14.72;100.00
71485;BME280;59300;52.074;4.758;2022-08-21T00:04:48;101740.28;;;14.82;100.00
71485;BME280;59300;52.074;4.758;2022-08-21T00:07:59;101739.41;;;14.81;100.00
71485;BME280;59300;52.074;4.758;2022-08-21T00:11:01;101737.88;;;14.74;100.00
71485;BME280;59300;52.074;4.758;2022-08-21T00:14:05;101740.66;;;14.69;100.00
71485;BME280;59300;52.074;4.758;2022-08-21T00:17:08;101737.09;;;14.70;100.00
71485;BME280;59300;52.074;4.758;2022-08-21T00:20:12;101740.47;;;14.76;100.00
71485;BME280;59300;52.074;4.758;2022-08-21T00:23:14;101729.09;;;14.72;100.00
71485;BME280;59300;52.074;4.758;2022-08-21T00:26:17;101736.25;;;14.68;100.00
71485;BME280;59300;52.074;4.758;2022-08-21T00:29:19;101735.31;;;14.71;100.00
71485;BME280;59300;52.074;4.758;2022-08-21T00:32:23;101728.97;;;14.75;100.00
71485;BME280;59300;52.074;4.758;2022-08-21T00:35:27;101722.84;;;14.73;100.00
71485;BME280;59300;52.074;4.758;2022-08-21T00:38:30;101722.78;;;14.74;100.00
71485;BME280;59300;52.074;4.758;2022-08-21T00:41:33;101722.97;;;14.68;100.00
71485;BME280;59300;52.074;4.758;2022-08-21T00:44:38;101716.91;;;14.63;100.00
71485;BME280;59300;52.074;4.758;2022-08-21T00:47:40;101719.56;;;14.63;100.00
71485;BME280;59300;52.074;4.758;2022-08-21T00:50:49;101720.56;;;14.61;100.00
71485;BME280;59300;52.074;4.758;2022-08-21T00:53:55;101719.75;;;14.57;100.00
71485;BME280;59300;52.074;4.758;2022-08-21T00:57:04;101715.03;;;14.67;100.00
71485;BME280;59300;52.074;4.758;2022-08-21T01:00:11;101719.50;;;14.66;100.00
71485;BME280;59300;52.074;4.758;2022-08-21T01:03:16;101711.59;;;14.63;100.00
71485;BME280;59300;52.074;4.758;2022-08-21T01:06:19;101709.03;;;14.60;100.00
71485;BME280;59300;52.074;4.758;2022-08-21T01:09:21;101716.75;;;14.69;100.00
71485;BME280;59300;52.074;4.758;2022-08-21T01:12:24;101716.03;;;14.63;100.00
71485;BME280;59300;52.074;4.758;2022-08-21T01:15:30;101718.13;;;14.53;100.00
71485;BME280;59300;52.074;4.758;2022-08-21T01:18:33;101724.72;;;14.69;100.00
71485;BME280;59300;52.074;4.758;2022-08-21T01:21:35;101721.13;;;14.70;100.00
71485;BME280;59300;52.074;4.758;2022-08-21T01:24:37;101714.75;;;14.78;100.00
71485;BME280;59300;52.074;4.758;2022-08-21T01:27:40;101719.50;;;14.66;100.00
71485;BME280;59300;52.074;4.758;2022-08-21T01:30:42;101721.31;;;14.64;100.00
71485;BME280;59300;52.074;4.758;2022-08-21T01:33:44;101724.16;;;14.58;100.00
71485;BME280;59300;52.074;4.758;2022-08-21T01:36:47;101721.69;;;14.52;100.00
71485;BME280;59300;52.074;4.758;2022-08-21T01:39:49;101718.38;;;14.43;100.00
71485;BME280;59300;52.074;4.758;2022-08-21T01:42:51;101721.41;;;14.31;100.00
71485;BME280;59300;52.074;4.758;2022-08-21T01:45:53;101711.91;;;14.24;100.00
71485;BME280;59300;52.074;4.758;2022-08-21T01:48:55;101713.81;;;14.19;100.00
71485;BME280;59300;52.074;4.758;2022-08-21T01:51:57;101708.28;;;14.26;100.00
71485;BME280;59300;52.074;4.758;2022-08-21T01:54:59;101712.66;;;14.27;100.00
71485;BME280;59300;52.074;4.758;2022-08-21T01:58:02;101703.38;;;14.12;100.00
71485;BME280;59300;52.074;4.758;2022-08-21T02:01:04;101693.91;;;14.04;100.00
71485;BME280;59300;52.074;4.758;2022-08-21T02:04:08;101695.94;;;13.94;100.00
71485;BME280;59300;52.074;4.758;2022-08-21T02:07:10;101700.66;;;13.84;100.00
71485;BME280;59300;52.074;4.758;2022-08-21T02:10:16;101692.00;;;13.76;100.00
71485;BME280;59300;52.074;4.758;2022-08-21T02:13:19;101687.09;;;13.62;100.00
71485;BME280;59300;52.074;4.758;2022-08-21T02:16:21;101687.34;;;13.52;100.00
71485;BME280;59300;52.074;4.758;2022-08-21T02:19:23;101682.13;;;13.49;100.00
71485;BME280;59300;52.074;4.758;2022-08-21T02:22:25;101681.00;;;13.58;100.00
71485;BME280;59300;52.074;4.758;2022-08-21T02:25:28;101677.41;;;13.61;100.00
71485;BME280;59300;52.074;4.758;2022-08-21T02:28:31;101674.94;;;13.53;100.00
71485;BME280;59300;52.074;4.758;2022-08-21T02:31:33;101676.78;;;13.51;100.00
71485;BME280;59300;52.074;4.758;2022-08-21T02:34:35;101686.59;;;13.47;100.00
71485;BME280;59300;52.074;4.758;2022-08-21T02:37:49;101684.94;;;13.43;100.00
71485;BME280;59300;52.074;4.758;2022-08-21T02:40:52;101680.31;;;13.51;100.00
71485;BME280;59300;52.074;4.758;2022-08-21T02:43:55;101672.31;;;13.53;100.00
71485;BME280;59300;52.074;4.758;2022-08-21T02:46:57;101681.94;;;13.56;100.00
71485;BME280;59300;52.074;4.758;2022-08-21T02:49:59;101685.69;;;13.48;100.00
71485;BME280;59300;52.074;4.758;2022-08-21T02:53:01;101678.66;;;13.47;100.00
71485;BME280;59300;52.074;4.758;2022-08-21T02:56:06;101679.44;;;13.51;100.00
71485;BME280;59300;52.074;4.758;2022-08-21T02:59:08;101675.91;;;13.50;100.00
71485;BME280;59300;52.074;4.758;2022-08-21T03:02:11;101673.06;;;13.58;100.00
71485;BME280;59300;52.074;4.758;2022-08-21T03:05:13;101673.00;;;13.60;100.00
71485;BME280;59300;52.074;4.758;2022-08-21T03:08:16;101670.84;;;13.74;100.00
71485;BME280;59300;52.074;4.758;2022-08-21T03:11:18;101665.19;;;13.87;100.00
71485;BME280;59300;52.074;4.758;2022-08-21T03:14:20;101660.03;;;13.80;100.00
71485;BME280;59300;52.074;4.758;2022-08-21T03:17:23;101665.28;;;13.83;100.00
71485;BME280;59300;52.074;4.758;2022-08-21T03:20:31;101661.97;;;14.05;100.00
71485;BME280;59300;52.074;4.758;2022-08-21T03:23:33;101652.03;;;14.13;100.00
71485;BME280;59300;52.074;4.758;2022-08-21T03:26:36;101656.59;;;14.08;100.00
71485;BME280;59300;52.074;4.758;2022-08-21T03:29:42;101646.63;;;14.17;100.00
71485;BME280;59300;52.074;4.758;2022-08-21T03:32:44;101647.34;;;14.22;100.00
71485;BME280;59300;52.074;4.758;2022-08-21T03:35:55;101648.66;;;14.37;100.00
71485;BME280;59300;52.074;4.758;2022-08-21T03:38:58;101645.88;;;14.41;100.00
71485;BME280;59300;52.074;4.758;2022-08-21T03:42:00;101637.84;;;14.43;100.00
71485;BME280;59300;52.074;4.758;2022-08-21T03:45:03;101645.66;;;14.48;100.00
71485;BME280;59300;52.074;4.758;2022-08-21T03:48:07;101646.69;;;14.43;100.00
71485;BME280;59300;52.074;4.758;2022-08-21T03:51:09;101645.44;;;14.27;100.00
71485;BME280;59300;52.074;4.758;2022-08-21T03:54:11;101644.59;;;14.25;100.00
71485;BME280;59300;52.074;4.758;2022-08-21T03:57:13;101641.63;;;14.36;100.00
71485;BME280;59300;52.074;4.758;2022-08-21T04:00:17;101643.53;;;14.31;100.00
71485;BME280;59300;52.074;4.758;2022-08-21T04:03:20;101639.22;;;14.28;100.00
71485;BME280;59300;52.074;4.758;2022-08-21T04:06:22;101639.47;;;14.19;100.00
71485;BME280;59300;52.074;4.758;2022-08-21T04:09:24;101651.19;;;14.11;100.00
71485;BME280;59300;52.074;4.758;2022-08-21T04:12:26;101651.00;;;14.18;100.00
71485;BME280;59300;52.074;4.758;2022-08-21T04:15:28;101649.41;;;14.12;100.00
71485;BME280;59300;52.074;4.758;2022-08-21T04:18:31;101652.41;;;14.01;100.00
71485;BME280;59300;52.074;4.758;2022-08-21T04:21:33;101648.91;;;13.99;100.00
71485;BME280;59300;52.074;4.758;2022-08-21T04:24:37;101655.19;;;13.96;100.00
71485;BME280;59300;52.074;4.758;2022-08-21T04:27:39;101643.91;;;13.88;100.00
71485;BME280;59300;52.074;4.758;2022-08-21T04:30:41;101648.44;;;13.85;100.00
71485;BME280;59300;52.074;4.758;2022-08-21T04:33:43;101650.41;;;13.78;100.00
71485;BME280;59300;52.074;4.758;2022-08-21T04:36:45;101660.56;;;13.93;100.00
71485;BME280;59300;52.074;4.758;2022-08-21T04:39:47;101664.91;;;13.96;100.00
71485;BME280;59300;52.074;4.758;2022-08-21T04:42:57;101661.44;;;13.94;100.00
71485;BME280;59300;52.074;4.758;2022-08-21T04:46:00;101668.34;;;14.00;100.00
71485;BME280;59300;52.074;4.758;2022-08-21T04:49:02;101671.81;;;14.03;100.00
71485;BME280;59300;52.074;4.758;2022-08-21T04:52:05;101671.88;;;14.00;100.00
71485;BME280;59300;52.074;4.758;2022-08-21T04:55:07;101679.75;;;14.03;100.00
71485;BME280;59300;52.074;4.758;2022-08-21T04:58:11;101675.25;;;14.05;100.00
71485;BME280;59300;52.074;4.758;2022-08-21T05:01:17;101675.09;;;14.11;100.00
71485;BME280;59300;52.074;4.758;2022-08-21T05:04:23;101676.63;;;14.19;100.00
71485;BME280;59300;52.074;4.758;2022-08-21T05:07:28;101681.78;;;14.25;100.00
71485;BME280;59300;52.074;4.758;2022-08-21T05:10:43;101678.00;;;14.32;100.00
71485;BME280;59300;52.074;4.758;2022-08-21T05:13:46;101680.66;;;14.32;100.00
71485;BME280;59300;52.074;4.758;2022-08-21T05:16:48;101675.31;;;14.34;100.00
71485;BME280;59300;52.074;4.758;2022-08-21T05:19:50;101676.09;;;14.37;100.00
71485;BME280;59300;52.074;4.758;2022-08-21T05:22:52;101676.00;;;14.40;100.00
71485;BME280;59300;52.074;4.758;2022-08-21T05:25:54;101684.88;;;14.39;100.00
71485;BME280;59300;52.074;4.758;2022-08-21T05:28:56;101681.03;;;14.50;100.00
71485;BME280;59300;52.074;4.758;2022-08-21T05:31:58;101681.84;;;14.52;100.00
71485;BME280;59300;52.074;4.758;2022-08-21T05:35:01;101687.84;;;14.58;100.00
71485;BME280;59300;52.074;4.758;2022-08-21T05:38:03;101687.50;;;14.69;100.00
71485;BME280;59300;52.074;4.758;2022-08-21T05:41:05;101685.66;;;14.73;100.00
71485;BME280;59300;52.074;4.758;2022-08-21T05:44:07;101683.69;;;14.78;100.00
71485;BME280;59300;52.074;4.758;2022-08-21T05:47:11;101685.19;;;14.87;100.00
71485;BME280;59300;52.074;4.758;2022-08-21T05:50:13;101688.47;;;14.95;100.00
71485;BME280;59300;52.074;4.758;2022-08-21T05:53:16;101686.47;;;15.02;100.00
71485;BME280;59300;52.074;4.758;2022-08-21T05:56:18;101689.78;;;15.09;100.00
71485;BME280;59300;52.074;4.758;2022-08-21T05:59:21;101686.03;;;15.16;100.00
71485;BME280;59300;52.074;4.758;2022-08-21T06:02:23;101683.13;;;15.24;100.00
71485;BME280;59300;52.074;4.758;2022-08-21T06:05:25;101673.94;;;15.32;100.00
71485;BME280;59300;52.074;4.758;2022-08-21T06:08:38;101689.34;;;15.48;100.00
71485;BME280;59300;52.074;4.758;2022-08-21T06:11:40;101679.19;;;15.59;100.00
71485;BME280;59300;52.074;4.758;2022-08-21T06:14:43;101679.00;;;15.65;100.00
71485;BME280;59300;52.074;4.758;2022-08-21T06:17:47;101677.81;;;15.74;99.17
71485;BME280;59300;52.074;4.758;2022-08-21T06:20:50;101676.50;;;15.86;99.52
71485;BME280;59300;52.074;4.758;2022-08-21T06:23:52;101680.44;;;16.00;98.82
71485;BME280;59300;52.074;4.758;2022-08-21T06:26:54;101688.03;;;16.10;97.97
71485;BME280;59300;52.074;4.758;2022-08-21T06:29:57;101683.16;;;16.22;97.15
71485;BME280;59300;52.074;4.758;2022-08-21T06:32:59;101683.69;;;16.32;96.37
71485;BME280;59300;52.074;4.758;2022-08-21T06:36:01;101678.81;;;16.43;95.61
71485;BME280;59300;52.074;4.758;2022-08-21T06:39:03;101682.84;;;16.53;94.86
71485;BME280;59300;52.074;4.758;2022-08-21T06:42:25;101683.28;;;16.65;94.13
71485;BME280;59300;52.074;4.758;2022-08-21T06:45:29;101677.50;;;16.76;93.71
71485;BME280;59300;52.074;4.758;2022-08-21T06:48:33;101678.31;;;17.20;92.33
71485;BME280;59300;52.074;4.758;2022-08-21T06:51:35;101678.63;;;17.56;89.89
71485;BME280;59300;52.074;4.758;2022-08-21T06:54:38;101672.22;;;17.39;90.21
71485;BME280;59300;52.074;4.758;2022-08-21T06:57:40;101678.88;;;17.29;90.96
71485;BME280;59300;52.074;4.758;2022-08-21T07:00:50;101671.06;;;17.45;90.88
71485;BME280;59300;52.074;4.758;2022-08-21T07:03:52;101675.63;;;17.63;89.87
71485;BME280;59300;52.074;4.758;2022-08-21T07:06:54;101677.94;;;17.90;88.03
71485;BME280;59300;52.074;4.758;2022-08-21T07:09:56;101676.94;;;18.14;87.08
71485;BME280;59300;52.074;4.758;2022-08-21T07:12:58;101677.56;;;18.57;85.43
71485;BME280;59300;52.074;4.758;2022-08-21T07:16:02;101681.53;;;18.85;84.28
71485;BME280;59300;52.074;4.758;2022-08-21T07:19:05;101681.88;;;18.79;84.09
71485;BME280;59300;52.074;4.758;2022-08-21T07:22:07;101681.94;;;19.14;82.41
71485;BME280;59300;52.074;4.758;2022-08-21T07:25:09;101682.63;;;19.53;80.69
71485;BME280;59300;52.074;4.758;2022-08-21T07:28:11;101689.69;;;19.71;79.31
71485;BME280;59300;52.074;4.758;2022-08-21T07:31:16;101685.25;;;20.85;75.22
71485;BME280;59300;52.074;4.758;2022-08-21T07:34:18;101685.00;;;21.66;71.29
71485;BME280;59300;52.074;4.758;2022-08-21T07:37:20;101685.06;;;22.36;68.49
71485;BME280;59300;52.074;4.758;2022-08-21T07:40:22;101680.47;;;23.59;63.81
71485;BME280;59300;52.074;4.758;2022-08-21T07:43:25;101680.47;;;23.98;61.30
71485;BME280;59300;52.074;4.758;2022-08-21T07:46:27;101675.06;;;23.46;63.16
71485;BME280;59300;52.074;4.758;2022-08-21T07:49:29;101682.06;;;24.01;61.19
71485;BME280;59300;52.074;4.758;2022-08-21T07:52:31;101677.22;;;23.93;61.29
71485;BME280;59300;52.074;4.758;2022-08-21T07:55:34;101681.44;;;24.47;60.07
71485;BME280;59300;52.074;4.758;2022-08-21T07:58:36;101681.59;;;24.70;59.26
71485;BME280;59300;52.074;4.758;2022-08-21T08:01:39;101683.00;;;24.87;57.93
71485;BME280;59300;52.074;4.758;2022-08-21T08:04:41;101681.88;;;26.06;54.95
71485;BME280;59300;52.074;4.758;2022-08-21T08:07:52;101681.41;;;25.67;55.45
71485;BME280;59300;52.074;4.758;2022-08-21T08:10:56;101675.97;;;25.44;56.43
71485;BME280;59300;52.074;4.758;2022-08-21T08:13:58;101683.75;;;24.28;59.77
71485;BME280;59300;52.074;4.758;2022-08-21T08:17:00;101684.34;;;23.94;60.87
71485;BME280;59300;52.074;4.758;2022-08-21T08:20:08;101683.69;;;23.26;63.77
71485;BME280;59300;52.074;4.758;2022-08-21T08:23:14;101686.75;;;23.99;62.33
71485;BME280;59300;52.074;4.758;2022-08-21T08:26:16;101677.09;;;25.65;55.61
71485;BME280;59300;52.074;4.758;2022-08-21T08:29:19;101676.25;;;25.75;57.01
71485;BME280;59300;52.074;4.758;2022-08-21T08:32:21;101672.41;;;25.44;55.99
71485;BME280;59300;52.074;4.758;2022-08-21T08:35:23;101670.78;;;25.41;56.76
71485;BME280;59300;52.074;4.758;2022-08-21T08:38:27;101664.53;;;25.05;55.78
71485;BME280;59300;52.074;4.758;2022-08-21T08:41:29;101659.53;;;24.39;58.77
71485;BME280;59300;52.074;4.758;2022-08-21T08:44:32;101661.72;;;23.71;60.70
71485;BME280;59300;52.074;4.758;2022-08-21T08:47:38;101657.84;;;23.49;62.47
71485;BME280;59300;52.074;4.758;2022-08-21T08:50:46;101668.00;;;25.07;56.92
71485;BME280;59300;52.074;4.758;2022-08-21T08:53:56;101665.56;;;24.18;57.96
71485;BME280;59300;52.074;4.758;2022-08-21T08:57:01;101663.22;;;24.01;59.17
71485;BME280;59300;52.074;4.758;2022-08-21T09:00:08;101657.06;;;23.21;63.12
71485;BME280;59300;52.074;4.758;2022-08-21T09:03:11;101653.81;;;22.76;62.35
71485;BME280;59300;52.074;4.758;2022-08-21T09:06:28;101660.56;;;22.41;63.91
71485;BME280;59300;52.074;4.758;2022-08-21T09:09:47;101661.22;;;22.99;62.50
71485;BME280;59300;52.074;4.758;2022-08-21T09:12:59;101659.69;;;22.95;61.58
71485;BME280;59300;52.074;4.758;2022-08-21T09:19:39;101660.25;;;24.54;56.46
71485;BME280;59300;52.074;4.758;2022-08-21T09:23:07;101650.91;;;24.71;56.12
71485;BME280;59300;52.074;4.758;2022-08-21T09:26:20;101654.63;;;25.87;52.88
71485;BME280;59300;52.074;4.758;2022-08-21T09:29:25;101642.97;;;26.86;49.20
71485;BME280;59300;52.074;4.758;2022-08-21T09:32:31;101637.94;;;26.81;48.84
71485;BME280;59300;52.074;4.758;2022-08-21T09:35:50;101649.75;;;24.38;55.04
71485;BME280;59300;52.074;4.758;2022-08-21T09:38:53;101655.69;;;23.54;57.79
71485;BME280;59300;52.074;4.758;2022-08-21T09:41:58;101658.56;;;24.03;57.54
71485;BME280;59300;52.074;4.758;2022-08-21T09:45:12;101666.66;;;24.03;56.86
71485;BME280;59300;52.074;4.758;2022-08-21T09:48:19;101653.97;;;23.53;56.73
71485;BME280;59300;52.074;4.758;2022-08-21T09:51:27;101660.28;;;22.31;60.12
71485;BME280;59300;52.074;4.758;2022-08-21T09:54:34;101663.41;;;21.82;63.83
71485;BME280;59300;52.074;4.758;2022-08-21T09:57:36;101666.56;;;21.74;63.65
71485;BME280;59300;52.074;4.758;2022-08-21T10:00:39;101664.13;;;22.27;62.67
71485;BME280;59300;52.074;4.758;2022-08-21T10:03:41;101662.81;;;23.55;57.32
71485;BME280;59300;52.074;4.758;2022-08-21T10:06:43;101669.56;;;23.35;59.27
71485;BME280;59300;52.074;4.758;2022-08-21T10:09:45;101665.91;;;23.36;58.60
71485;BME280;59300;52.074;4.758;2022-08-21T10:16:29;101657.34;;;25.75;50.26
71485;BME280;59300;52.074;4.758;2022-08-21T10:26:11;101665.09;;;23.08;57.04
71485;BME280;59300;52.074;4.758;2022-08-21T10:29:22;101671.00;;;22.60;59.10
71485;BME280;59300;52.074;4.758;2022-08-21T10:33:00;101662.44;;;22.81;58.94
71485;BME280;59300;52.074;4.758;2022-08-21T10:36:20;101660.88;;;22.22;60.22
71485;BME280;59300;52.074;4.758;2022-08-21T10:39:35;101651.69;;;22.81;58.09
71485;BME280;59300;52.074;4.758;2022-08-21T10:42:52;101650.38;;;24.42;54.85
71485;BME280;59300;52.074;4.758;2022-08-21T10:56:34;101646.28;;;26.13;49.00
71485;BME280;59300;52.074;4.758;2022-08-21T10:59:50;101647.28;;;27.09;46.44
71485;BME280;59300;52.074;4.758;2022-08-21T11:06:21;101650.44;;;26.17;46.63
71485;BME280;59300;52.074;4.758;2022-08-21T11:09:25;101647.41;;;25.40;48.92
71485;BME280;59300;52.074;4.758;2022-08-21T11:12:40;101658.81;;;24.37;52.81
71485;BME280;59300;52.074;4.758;2022-08-21T11:15:56;101654.91;;;24.90;53.57
71485;BME280;59300;52.074;4.758;2022-08-21T11:19:04;101646.53;;;25.17;52.21
71485;BME280;59300;52.074;4.758;2022-08-21T11:22:20;101647.41;;;26.43;48.62
71485;BME280;59300;52.074;4.758;2022-08-21T11:25:41;101652.63;;;26.67;47.76
71485;BME280;59300;52.074;4.758;2022-08-21T11:28:59;101646.63;;;26.19;49.95
71485;BME280;59300;52.074;4.758;2022-08-21T11:32:28;101648.72;;;25.70;49.70
71485;BME280;59300;52.074;4.758;2022-08-21T11:39:22;101654.06;;;24.28;53.53
71485;BME280;59300;52.074;4.758;2022-08-21T11:42:38;101654.47;;;24.10;55.18
71485;BME280;59300;52.074;4.758;2022-08-21T11:45:47;101657.09;;;23.73;54.02
71485;BME280;59300;52.074;4.758;2022-08-21T11:52:22;101662.38;;;23.61;55.36
71485;BME280;59300;52.074;4.758;2022-08-21T11:55:44;101666.50;;;24.54;52.77
71485;BME280;59300;52.074;4.758;2022-08-21T11:58:52;101656.91;;;24.26;53.20
71485;BME280;59300;52.074;4.758;2022-08-21T12:01:59;101657.19;;;23.84;55.69
71485;BME280;59300;52.074;4.758;2022-08-21T12:05:05;101656.53;;;23.68;54.74
71485;BME280;59300;52.074;4.758;2022-08-21T12:08:14;101655.03;;;23.76;54.37
71485;BME280;59300;52.074;4.758;2022-08-21T12:14:18;101664.28;;;24.48;52.97
71485;BME280;59300;52.074;4.758;2022-08-21T12:17:23;101667.28;;;24.19;52.57
71485;BME280;59300;52.074;4.758;2022-08-21T12:24:04;101659.66;;;23.74;54.44
71485;BME280;59300;52.074;4.758;2022-08-21T12:27:29;101670.34;;;23.24;54.76
71485;BME280;59300;52.074;4.758;2022-08-21T12:30:38;101671.16;;;23.12;56.45
71485;BME280;59300;52.074;4.758;2022-08-21T12:33:40;101677.69;;;23.48;55.74
71485;BME280;59300;52.074;4.758;2022-08-21T12:36:52;101678.22;;;23.53;53.81
71485;BME280;59300;52.074;4.758;2022-08-21T12:39:57;101683.50;;;22.74;57.06
71485;BME280;59300;52.074;4.758;2022-08-21T12:43:01;101684.59;;;22.30;58.77
71485;BME280;59300;52.074;4.758;2022-08-21T12:46:04;101680.34;;;22.40;58.77
71485;BME280;59300;52.074;4.758;2022-08-21T12:49:14;101680.03;;;23.27;56.31
71485;BME280;59300;52.074;4.758;2022-08-21T12:52:28;101679.81;;;23.95;53.11
71485;BME280;59300;52.074;4.758;2022-08-21T12:55:32;101687.34;;;24.15;52.58
71485;BME280;59300;52.074;4.758;2022-08-21T12:58:35;101681.69;;;24.93;51.37
71485;BME280;59300;52.074;4.758;2022-08-21T13:01:45;101681.38;;;24.36;53.20
71485;BME280;59300;52.074;4.758;2022-08-21T13:04:49;101679.28;;;25.01;48.58
71485;BME280;59300;52.074;4.758;2022-08-21T13:07:51;101680.97;;;24.53;49.43
71485;BME280;59300;52.074;4.758;2022-08-21T13:10:59;101679.56;;;24.85;45.61
71485;BME280;59300;52.074;4.758;2022-08-21T13:14:37;101680.94;;;24.66;47.01
71485;BME280;59300;52.074;4.758;2022-08-21T13:17:48;101681.13;;;24.39;47.03
71485;BME280;59300;52.074;4.758;2022-08-21T13:21:11;101687.91;;;24.45;46.90
71485;BME280;59300;52.074;4.758;2022-08-21T13:24:34;101682.22;;;24.74;44.76
71485;BME280;59300;52.074;4.758;2022-08-21T13:28:05;101678.72;;;24.84;46.14
71485;BME280;59300;52.074;4.758;2022-08-21T13:31:10;101685.00;;;25.32;44.42
71485;BME280;59300;52.074;4.758;2022-08-21T13:34:12;101675.88;;;25.57;45.36
71485;BME280;59300;52.074;4.758;2022-08-21T13:37:15;101677.47;;;25.49;41.95
71485;BME280;59300;52.074;4.758;2022-08-21T13:40:31;101684.28;;;24.94;43.83
71485;BME280;59300;52.074;4.758;2022-08-21T13:43:35;101686.22;;;25.28;43.85
71485;BME280;59300;52.074;4.758;2022-08-21T13:46:37;101672.44;;;25.55;44.45
71485;BME280;59300;52.074;4.758;2022-08-21T13:49:42;101673.22;;;24.97;44.61
71485;BME280;59300;52.074;4.758;2022-08-21T13:52:58;101671.09;;;24.90;45.96
71485;BME280;59300;52.074;4.758;2022-08-21T13:56:03;101667.94;;;24.10;46.30
71485;BME280;59300;52.074;4.758;2022-08-21T13:59:05;101676.81;;;23.99;47.65
71485;BME280;59300;52.074;4.758;2022-08-21T14:02:18;101673.91;;;23.51;47.10
71485;BME280;59300;52.074;4.758;2022-08-21T14:05:26;101676.81;;;23.60;47.66
71485;BME280;59300;52.074;4.758;2022-08-21T14:08:36;101687.81;;;23.57;48.10
71485;BME280;59300;52.074;4.758;2022-08-21T14:11:39;101676.34;;;23.92;47.21
71485;BME280;59300;52.074;4.758;2022-08-21T14:14:42;101683.69;;;23.90;46.61
71485;BME280;59300;52.074;4.758;2022-08-21T14:17:45;101681.09;;;24.02;47.21
71485;BME280;59300;52.074;4.758;2022-08-21T14:20:47;101682.34;;;24.35;45.67
71485;BME280;59300;52.074;4.758;2022-08-21T14:24:02;101679.50;;;24.12;45.23
71485;BME280;59300;52.074;4.758;2022-08-21T14:27:06;101686.91;;;24.08;47.50
71485;BME280;59300;52.074;4.758;2022-08-21T14:30:16;101681.97;;;23.76;46.52
71485;BME280;59300;52.074;4.758;2022-08-21T14:33:29;101685.22;;;23.82;49.81
71485;BME280;59300;52.074;4.758;2022-08-21T14:36:32;101682.66;;;23.67;52.04
71485;BME280;59300;52.074;4.758;2022-08-21T14:39:34;101681.13;;;23.24;54.30
71485;BME280;59300;52.074;4.758;2022-08-21T14:42:36;101676.97;;;23.19;55.54
71485;BME280;59300;52.074;4.758;2022-08-21T14:45:40;101686.03;;;23.17;54.15
71485;BME280;59300;52.074;4.758;2022-08-21T14:48:42;101693.56;;;22.85;54.77
71485;BME280;59300;52.074;4.758;2022-08-21T14:51:44;101695.00;;;22.91;54.85
71485;BME280;59300;52.074;4.758;2022-08-21T14:54:55;101691.81;;;22.57;57.19
71485;BME280;59300;52.074;4.758;2022-08-21T14:57:57;101692.13;;;22.37;57.64
71485;BME280;59300;52.074;4.758;2022-08-21T15:00:59;101693.81;;;22.67;55.79
71485;BME280;59300;52.074;4.758;2022-08-21T15:04:01;101690.81;;;22.45;56.86
71485;BME280;59300;52.074;4.758;2022-08-21T15:07:04;101694.25;;;22.61;57.26
71485;BME280;59300;52.074;4.758;2022-08-21T15:10:06;101695.59;;;22.54;57.99
71485;BME280;59300;52.074;4.758;2022-08-21T15:13:10;101694.03;;;22.64;56.77
71485;BME280;59300;52.074;4.758;2022-08-21T15:16:13;101690.97;;;22.56;57.61
71485;BME280;59300;52.074;4.758;2022-08-21T15:19:15;101692.19;;;22.92;57.18
71485;BME280;59300;52.074;4.758;2022-08-21T15:22:17;101694.47;;;22.98;56.03
71485;BME280;59300;52.074;4.758;2022-08-21T15:25:28;101687.34;;;23.25;55.40
71485;BME280;59300;52.074;4.758;2022-08-21T15:28:30;101687.03;;;23.29;55.23
71485;BME280;59300;52.074;4.758;2022-08-21T15:31:33;101692.97;;;23.35;55.73
71485;BME280;59300;52.074;4.758;2022-08-21T15:34:36;101697.59;;;23.33;55.04
71485;BME280;59300;52.074;4.758;2022-08-21T15:37:38;101692.69;;;23.12;56.76
71485;BME280;59300;52.074;4.758;2022-08-21T15:40:41;101695.34;;;23.52;54.04
71485;BME280;59300;52.074;4.758;2022-08-21T15:43:53;101701.69;;;23.38;54.43
71485;BME280;59300;52.074;4.758;2022-08-21T15:46:56;101702.47;;;23.13;56.08
71485;BME280;59300;52.074;4.758;2022-08-21T15:49:58;101700.72;;;23.52;53.58
71485;BME280;59300;52.074;4.758;2022-08-21T15:53:00;101701.06;;;23.86;54.50
71485;BME280;59300;52.074;4.758;2022-08-21T15:56:02;101704.13;;;24.32;52.72
71485;BME280;59300;52.074;4.758;2022-08-21T15:59:12;101704.22;;;24.43;53.99
71485;BME280;59300;52.074;4.758;2022-08-21T16:02:20;101708.72;;;24.56;51.89
71485;BME280;59300;52.074;4.758;2022-08-21T16:05:23;101711.25;;;24.33;52.50
71485;BME280;59300;52.074;4.758;2022-08-21T16:08:25;101707.19;;;24.14;52.63
71485;BME280;59300;52.074;4.758;2022-08-21T16:11:27;101713.78;;;23.84;53.06
71485;BME280;59300;52.074;4.758;2022-08-21T16:14:30;101706.34;;;23.49;54.26
71485;BME280;59300;52.074;4.758;2022-08-21T16:17:34;101705.13;;;23.27;55.20
71485;BME280;59300;52.074;4.758;2022-08-21T16:20:37;101704.38;;;23.38;54.73
71485;BME280;59300;52.074;4.758;2022-08-21T16:23:39;101705.16;;;23.13;55.53
71485;BME280;59300;52.074;4.758;2022-08-21T16:26:41;101690.47;;;22.91;55.81
71485;BME280;59300;52.074;4.758;2022-08-21T16:29:45;101700.75;;;22.72;57.59
71485;BME280;59300;52.074;4.758;2022-08-21T16:32:48;101698.28;;;22.54;56.73
71485;BME280;59300;52.074;4.758;2022-08-21T16:35:50;101693.69;;;22.42;56.64
71485;BME280;59300;52.074;4.758;2022-08-21T16:38:57;101701.00;;;22.25;57.80
71485;BME280;59300;52.074;4.758;2022-08-21T16:41:59;101700.06;;;21.97;57.80
71485;BME280;59300;52.074;4.758;2022-08-21T16:45:04;101694.09;;;22.06;57.50